sensor_id;sensor_type;location;lat;lon;timestamp;P1;durP1;ratioP1;P2;durP2;ratioP2
10731;SDS011;74907;42.812;23.216;2024-02-14T00:00:38;6.70;;;6.10;;
10731;SDS011;74907;42.812;23.216;2024-02-14T00:03:06;6.73;;;6.23;;
10731;SDS011;74907;42.812;23.216;2024-02-14T00:05:33;6.30;;;5.80;;
10731;SDS011;74907;42.812;23.216;2024-02-14T00:07:59;6.37;;;5.77;;
10731;SDS011;74907;42.812;23.216;2024-02-14T00:10:26;6.27;;;5.67;;
10731;SDS011;74907;42.812;23.216;2024-02-14T00:12:53;6.67;;;6.03;;
10731;SDS011;74907;42.812;23.216;2024-02-14T00:15:20;6.23;;;5.73;;
10731;SDS011;74907;42.812;23.216;2024-02-14T00:17:48;6.30;;;5.83;;
10731;SDS011;74907;42.812;23.216;2024-02-14T00:20:15;6.03;;;5.63;;
10731;SDS011;74907;42.812;23.216;2024-02-14T00:22:42;6.23;;;5.73;;
10731;SDS011;74907;42.812;23.216;2024-02-14T00:25:09;7.07;;;6.47;;
10731;SDS011;74907;42.812;23.216;2024-02-14T00:27:36;6.90;;;6.40;;
10731;SDS011;74907;42.812;23.216;2024-02-14T00:30:03;6.53;;;6.03;;
10731;SDS011;74907;42.812;23.216;2024-02-14T00:32:30;6.67;;;6.17;;
10731;SDS011;74907;42.812;23.216;2024-02-14T00:35:00;6.73;;;6.23;;
10731;SDS011;74907;42.812;23.216;2024-02-14T00:37:26;7.37;;;6.77;;
10731;SDS011;74907;42.812;23.216;2024-02-14T00:39:54;7.30;;;6.80;;
10731;SDS011;74907;42.812;23.216;2024-02-14T00:42:22;7.23;;;6.60;;
10731;SDS011;74907;42.812;23.216;2024-02-14T00:44:49;7.13;;;6.60;;
10731;SDS011;74907;42.812;23.216;2024-02-14T00:47:15;6.87;;;6.27;;
10731;SDS011;74907;42.812;23.216;2024-02-14T00:49:42;7.30;;;6.70;;
10731;SDS011;74907;42.812;23.216;2024-02-14T00:52:10;7.00;;;6.40;;
10731;SDS011;74907;42.812;23.216;2024-02-14T00:54:37;6.93;;;6.30;;
10731;SDS011;74907;42.812;23.216;2024-02-14T00:57:04;6.77;;;6.07;;
10731;SDS011;74907;42.812;23.216;2024-02-14T00:59:34;6.83;;;6.23;;
10731;SDS011;74907;42.812;23.216;2024-02-14T01:02:00;6.73;;;6.13;;
10731;SDS011;74907;42.812;23.216;2024-02-14T01:04:27;6.43;;;5.83;;
10731;SDS011;74907;42.812;23.216;2024-02-14T01:06:54;5.93;;;5.53;;
10731;SDS011;74907;42.812;23.216;2024-02-14T01:09:22;6.33;;;5.83;;
10731;SDS011;74907;42.812;23.216;2024-02-14T01:11:48;7.87;;;6.43;;
10731;SDS011;74907;42.812;23.216;2024-02-14T01:14:15;6.53;;;6.03;;
10731;SDS011;74907;42.812;23.216;2024-02-14T01:16:42;6.63;;;6.20;;
10731;SDS011;74907;42.812;23.216;2024-02-14T01:19:09;6.63;;;6.13;;
10731;SDS011;74907;42.812;23.216;2024-02-14T01:21:36;6.43;;;5.93;;
10731;SDS011;74907;42.812;23.216;2024-02-14T01:24:03;6.77;;;6.27;;
10731;SDS011;74907;42.812;23.216;2024-02-14T01:26:35;6.93;;;6.33;;
10731;SDS011;74907;42.812;23.216;2024-02-14T01:29:01;7.50;;;6.80;;
10731;SDS011;74907;42.812;23.216;2024-02-14T01:31:28;6.93;;;6.33;;
10731;SDS011;74907;42.812;23.216;2024-02-14T01:33:55;7.47;;;6.87;;
10731;SDS011;74907;42.812;23.216;2024-02-14T01:36:22;8.00;;;7.37;;
10731;SDS011;74907;42.812;23.216;2024-02-14T01:38:49;7.00;;;6.50;;
10731;SDS011;74907;42.812;23.216;2024-02-14T01:41:15;7.93;;;7.33;;
10731;SDS011;74907;42.812;23.216;2024-02-14T01:43:44;7.87;;;7.07;;
10731;SDS011;74907;42.812;23.216;2024-02-14T01:46:10;7.30;;;6.70;;
10731;SDS011;74907;42.812;23.216;2024-02-14T01:48:37;6.90;;;6.40;;
10731;SDS011;74907;42.812;23.216;2024-02-14T01:51:06;7.43;;;6.87;;
10731;SDS011;74907;42.812;23.216;2024-02-14T01:53:35;7.60;;;7.00;;
10731;SDS011;74907;42.812;23.216;2024-02-14T01:56:03;7.00;;;6.37;;
10731;SDS011;74907;42.812;23.216;2024-02-14T01:58:31;7.90;;;7.30;;
10731;SDS011;74907;42.812;23.216;2024-02-14T02:01:01;8.20;;;7.47;;
10731;SDS011;74907;42.812;23.216;2024-02-14T02:03:28;7.23;;;6.53;;
10731;SDS011;74907;42.812;23.216;2024-02-14T02:05:58;7.57;;;7.07;;
10731;SDS011;74907;42.812;23.216;2024-02-14T02:08:25;8.00;;;7.30;;
10731;SDS011;74907;42.812;23.216;2024-02-14T02:10:52;7.93;;;7.23;;
10731;SDS011;74907;42.812;23.216;2024-02-14T02:13:19;7.67;;;7.07;;
10731;SDS011;74907;42.812;23.216;2024-02-14T02:15:46;7.33;;;6.73;;
10731;SDS011;74907;42.812;23.216;2024-02-14T02:18:14;7.20;;;6.70;;
10731;SDS011;74907;42.812;23.216;2024-02-14T02:20:41;7.37;;;6.70;;
10731;SDS011;74907;42.812;23.216;2024-02-14T02:23:11;7.23;;;6.63;;
10731;SDS011;74907;42.812;23.216;2024-02-14T02:25:39;7.90;;;7.20;;
10731;SDS011;74907;42.812;23.216;2024-02-14T02:28:06;8.20;;;7.50;;
10731;SDS011;74907;42.812;23.216;2024-02-14T02:30:34;7.83;;;7.23;;
10731;SDS011;74907;42.812;23.216;2024-02-14T02:33:01;7.20;;;6.60;;
10731;SDS011;74907;42.812;23.216;2024-02-14T02:35:28;8.10;;;7.27;;
10731;SDS011;74907;42.812;23.216;2024-02-14T02:37:55;8.40;;;7.70;;
10731;SDS011;74907;42.812;23.216;2024-02-14T02:40:23;8.07;;;7.37;;
10731;SDS011;74907;42.812;23.216;2024-02-14T02:42:50;7.83;;;7.23;;
10731;SDS011;74907;42.812;23.216;2024-02-14T02:45:17;8.40;;;7.70;;
10731;SDS011;74907;42.812;23.216;2024-02-14T02:47:44;8.53;;;7.83;;
10731;SDS011;74907;42.812;23.216;2024-02-14T02:50:11;8.63;;;7.73;;
10731;SDS011;74907;42.812;23.216;2024-02-14T02:52:38;8.60;;;7.90;;
10731;SDS011;74907;42.812;23.216;2024-02-14T02:55:06;8.87;;;8.17;;
10731;SDS011;74907;42.812;23.216;2024-02-14T02:57:34;8.27;;;7.53;;
10731;SDS011;74907;42.812;23.216;2024-02-14T03:00:02;8.30;;;7.60;;
10731;SDS011;74907;42.812;23.216;2024-02-14T03:02:30;8.97;;;8.17;;
10731;SDS011;74907;42.812;23.216;2024-02-14T03:04:57;8.80;;;8.07;;
10731;SDS011;74907;42.812;23.216;2024-02-14T03:07:24;8.90;;;8.10;;
10731;SDS011;74907;42.812;23.216;2024-02-14T03:09:49;8.97;;;8.27;;
10731;SDS011;74907;42.812;23.216;2024-02-14T03:12:16;9.33;;;8.53;;
10731;SDS011;74907;42.812;23.216;2024-02-14T03:14:45;10.33;;;9.43;;
10731;SDS011;74907;42.812;23.216;2024-02-14T03:17:12;9.87;;;8.93;;
10731;SDS011;74907;42.812;23.216;2024-02-14T03:19:39;9.33;;;8.63;;
10731;SDS011;74907;42.812;23.216;2024-02-14T03:22:06;9.80;;;9.00;;
10731;SDS011;74907;42.812;23.216;2024-02-14T03:24:34;10.03;;;9.17;;
10731;SDS011;74907;42.812;23.216;2024-02-14T03:27:02;10.60;;;9.67;;
10731;SDS011;74907;42.812;23.216;2024-02-14T03:29:30;8.53;;;7.80;;
10731;SDS011;74907;42.812;23.216;2024-02-14T03:31:59;9.40;;;8.50;;
10731;SDS011;74907;42.812;23.216;2024-02-14T03:34:29;9.63;;;8.73;;
10731;SDS011;74907;42.812;23.216;2024-02-14T03:36:58;10.43;;;9.50;;
10731;SDS011;74907;42.812;23.216;2024-02-14T03:39:26;9.40;;;8.60;;
10731;SDS011;74907;42.812;23.216;2024-02-14T03:41:53;9.60;;;8.80;;
10731;SDS011;74907;42.812;23.216;2024-02-14T03:44:21;9.73;;;8.83;;
10731;SDS011;74907;42.812;23.216;2024-02-14T03:46:48;8.97;;;8.27;;
10731;SDS011;74907;42.812;23.216;2024-02-14T03:49:16;10.23;;;9.33;;
10731;SDS011;74907;42.812;23.216;2024-02-14T03:51:43;10.33;;;9.33;;
10731;SDS011;74907;42.812;23.216;2024-02-14T03:54:10;9.07;;;8.37;;
10731;SDS011;74907;42.812;23.216;2024-02-14T03:56:37;9.50;;;8.77;;
10731;SDS011;74907;42.812;23.216;2024-02-14T03:59:03;9.90;;;9.03;;
10731;SDS011;74907;42.812;23.216;2024-02-14T04:01:32;10.47;;;9.57;;
10731;SDS011;74907;42.812;23.216;2024-02-14T04:04:01;9.70;;;8.80;;
10731;SDS011;74907;42.812;23.216;2024-02-14T04:06:29;11.40;;;10.40;;
10731;SDS011;74907;42.812;23.216;2024-02-14T04:08:57;10.17;;;9.27;;
10731;SDS011;74907;42.812;23.216;2024-02-14T04:11:24;10.60;;;9.70;;
10731;SDS011;74907;42.812;23.216;2024-02-14T04:13:51;11.60;;;10.50;;
10731;SDS011;74907;42.812;23.216;2024-02-14T04:16:18;10.30;;;9.40;;
10731;SDS011;74907;42.812;23.216;2024-02-14T04:18:46;10.20;;;9.30;;
10731;SDS011;74907;42.812;23.216;2024-02-14T04:21:13;11.37;;;10.37;;
10731;SDS011;74907;42.812;23.216;2024-02-14T04:23:41;11.13;;;10.07;;
10731;SDS011;74907;42.812;23.216;2024-02-14T04:26:07;11.87;;;10.67;;
10731;SDS011;74907;42.812;23.216;2024-02-14T04:28:34;11.17;;;10.20;;
10731;SDS011;74907;42.812;23.216;2024-02-14T04:31:01;11.37;;;10.43;;
10731;SDS011;74907;42.812;23.216;2024-02-14T04:33:28;11.53;;;10.47;;
10731;SDS011;74907;42.812;23.216;2024-02-14T04:35:55;10.40;;;9.40;;
10731;SDS011;74907;42.812;23.216;2024-02-14T04:38:21;11.63;;;10.57;;
10731;SDS011;74907;42.812;23.216;2024-02-14T04:40:50;11.27;;;10.27;;
10731;SDS011;74907;42.812;23.216;2024-02-14T04:43:17;12.33;;;11.13;;
10731;SDS011;74907;42.812;23.216;2024-02-14T04:45:44;10.93;;;9.93;;
10731;SDS011;74907;42.812;23.216;2024-02-14T04:48:11;11.70;;;10.60;;
10731;SDS011;74907;42.812;23.216;2024-02-14T04:50:38;11.63;;;10.63;;
10731;SDS011;74907;42.812;23.216;2024-02-14T04:53:05;11.83;;;10.83;;
10731;SDS011;74907;42.812;23.216;2024-02-14T04:55:32;11.30;;;10.30;;
10731;SDS011;74907;42.812;23.216;2024-02-14T04:58:00;12.00;;;10.93;;
10731;SDS011;74907;42.812;23.216;2024-02-14T05:00:27;11.70;;;10.60;;
10731;SDS011;74907;42.812;23.216;2024-02-14T05:02:54;11.43;;;10.43;;
10731;SDS011;74907;42.812;23.216;2024-02-14T05:05:20;11.80;;;10.80;;
10731;SDS011;74907;42.812;23.216;2024-02-14T05:07:47;10.80;;;9.90;;
10731;SDS011;74907;42.812;23.216;2024-02-14T05:10:14;12.23;;;11.17;;
10731;SDS011;74907;42.812;23.216;2024-02-14T05:12:40;14.00;;;12.53;;
10731;SDS011;74907;42.812;23.216;2024-02-14T05:15:09;16.17;;;14.40;;
10731;SDS011;74907;42.812;23.216;2024-02-14T05:17:37;17.03;;;14.30;;
10731;SDS011;74907;42.812;23.216;2024-02-14T05:20:04;24.07;;;17.80;;
10731;SDS011;74907;42.812;23.216;2024-02-14T05:22:35;20.60;;;15.97;;
10731;SDS011;74907;42.812;23.216;2024-02-14T05:25:02;18.07;;;14.47;;
10731;SDS011;74907;42.812;23.216;2024-02-14T05:27:30;19.13;;;14.80;;
10731;SDS011;74907;42.812;23.216;2024-02-14T05:29:56;26.77;;;18.03;;
10731;SDS011;74907;42.812;23.216;2024-02-14T05:32:25;19.47;;;14.87;;
10731;SDS011;74907;42.812;23.216;2024-02-14T05:34:51;15.60;;;12.63;;
10731;SDS011;74907;42.812;23.216;2024-02-14T05:37:19;17.43;;;14.87;;
10731;SDS011;74907;42.812;23.216;2024-02-14T05:39:46;17.23;;;13.93;;
10731;SDS011;74907;42.812;23.216;2024-02-14T05:42:13;13.87;;;12.57;;
10731;SDS011;74907;42.812;23.216;2024-02-14T05:44:41;13.00;;;11.70;;
10731;SDS011;74907;42.812;23.216;2024-02-14T05:47:08;12.50;;;11.40;;
10731;SDS011;74907;42.812;23.216;2024-02-14T05:49:37;12.03;;;10.93;;
10731;SDS011;74907;42.812;23.216;2024-02-14T05:52:04;12.20;;;11.10;;
10731;SDS011;74907;42.812;23.216;2024-02-14T05:54:32;12.43;;;11.23;;
10731;SDS011;74907;42.812;23.216;2024-02-14T05:56:58;11.13;;;10.17;;
10731;SDS011;74907;42.812;23.216;2024-02-14T05:59:26;11.33;;;10.33;;
10731;SDS011;74907;42.812;23.216;2024-02-14T06:01:52;10.97;;;10.07;;
10731;SDS011;74907;42.812;23.216;2024-02-14T06:04:19;11.93;;;10.83;;
10731;SDS011;74907;42.812;23.216;2024-02-14T06:06:47;11.20;;;10.20;;
10731;SDS011;74907;42.812;23.216;2024-02-14T06:09:14;12.73;;;9.87;;
10731;SDS011;74907;42.812;23.216;2024-02-14T06:11:40;10.97;;;10.07;;
10731;SDS011;74907;42.812;23.216;2024-02-14T06:14:09;11.47;;;10.37;;
10731;SDS011;74907;42.812;23.216;2024-02-14T06:16:35;11.10;;;10.07;;
10731;SDS011;74907;42.812;23.216;2024-02-14T06:19:02;10.43;;;9.43;;
10731;SDS011;74907;42.812;23.216;2024-02-14T06:21:31;10.87;;;9.93;;
10731;SDS011;74907;42.812;23.216;2024-02-14T06:24:00;10.20;;;9.30;;
10731;SDS011;74907;42.812;23.216;2024-02-14T06:26:29;12.70;;;10.30;;
10731;SDS011;74907;42.812;23.216;2024-02-14T06:28:56;11.87;;;10.73;;
10731;SDS011;74907;42.812;23.216;2024-02-14T06:31:23;9.90;;;9.03;;
10731;SDS011;74907;42.812;23.216;2024-02-14T06:33:50;11.17;;;10.27;;
10731;SDS011;74907;42.812;23.216;2024-02-14T06:36:17;10.60;;;9.37;;
10731;SDS011;74907;42.812;23.216;2024-02-14T06:38:43;9.70;;;8.80;;
10731;SDS011;74907;42.812;23.216;2024-02-14T06:41:12;10.33;;;9.40;;
10731;SDS011;74907;42.812;23.216;2024-02-14T06:43:39;9.97;;;9.07;;
10731;SDS011;74907;42.812;23.216;2024-02-14T06:46:06;11.90;;;10.47;;
10731;SDS011;74907;42.812;23.216;2024-02-14T06:48:33;10.93;;;9.83;;
10731;SDS011;74907;42.812;23.216;2024-02-14T06:51:00;9.37;;;8.60;;
10731;SDS011;74907;42.812;23.216;2024-02-14T06:53:26;9.87;;;9.07;;
10731;SDS011;74907;42.812;23.216;2024-02-14T06:55:53;9.70;;;8.80;;
10731;SDS011;74907;42.812;23.216;2024-02-14T06:58:21;9.43;;;8.63;;
10731;SDS011;74907;42.812;23.216;2024-02-14T07:00:49;8.50;;;7.70;;
10731;SDS011;74907;42.812;23.216;2024-02-14T07:03:15;9.90;;;8.20;;
10731;SDS011;74907;42.812;23.216;2024-02-14T07:05:41;9.03;;;8.33;;
10731;SDS011;74907;42.812;23.216;2024-02-14T07:08:08;9.33;;;8.43;;
10731;SDS011;74907;42.812;23.216;2024-02-14T07:10:35;10.23;;;9.13;;
10731;SDS011;74907;42.812;23.216;2024-02-14T07:13:02;10.33;;;9.33;;
10731;SDS011;74907;42.812;23.216;2024-02-14T07:15:33;9.20;;;8.40;;
10731;SDS011;74907;42.812;23.216;2024-02-14T07:17:59;10.27;;;9.27;;
10731;SDS011;74907;42.812;23.216;2024-02-14T07:20:26;10.20;;;9.10;;
10731;SDS011;74907;42.812;23.216;2024-02-14T07:22:53;8.40;;;7.70;;
10731;SDS011;74907;42.812;23.216;2024-02-14T07:25:21;8.40;;;7.70;;
10731;SDS011;74907;42.812;23.216;2024-02-14T07:27:48;9.00;;;8.30;;
10731;SDS011;74907;42.812;23.216;2024-02-14T07:30:15;9.70;;;8.80;;
10731;SDS011;74907;42.812;23.216;2024-02-14T07:32:43;9.13;;;8.33;;
10731;SDS011;74907;42.812;23.216;2024-02-14T07:35:10;9.27;;;8.40;;
10731;SDS011;74907;42.812;23.216;2024-02-14T07:37:38;11.30;;;8.87;;
10731;SDS011;74907;42.812;23.216;2024-02-14T07:40:05;9.63;;;8.73;;
10731;SDS011;74907;42.812;23.216;2024-02-14T07:42:32;10.47;;;8.67;;
10731;SDS011;74907;42.812;23.216;2024-02-14T07:44:59;10.50;;;9.33;;
10731;SDS011;74907;42.812;23.216;2024-02-14T07:47:28;9.13;;;8.30;;
10731;SDS011;74907;42.812;23.216;2024-02-14T07:49:56;8.23;;;7.63;;
10731;SDS011;74907;42.812;23.216;2024-02-14T07:52:23;7.77;;;7.17;;
10731;SDS011;74907;42.812;23.216;2024-02-14T07:54:51;9.23;;;7.73;;
10731;SDS011;74907;42.812;23.216;2024-02-14T07:57:18;7.77;;;7.07;;
10731;SDS011;74907;42.812;23.216;2024-02-14T07:59:45;7.40;;;6.80;;
10731;SDS011;74907;42.812;23.216;2024-02-14T08:02:11;8.33;;;7.73;;
10731;SDS011;74907;42.812;23.216;2024-02-14T08:04:38;8.03;;;7.43;;
10731;SDS011;74907;42.812;23.216;2024-02-14T08:07:06;7.93;;;7.33;;
10731;SDS011;74907;42.812;23.216;2024-02-14T08:09:33;7.30;;;6.70;;
10731;SDS011;74907;42.812;23.216;2024-02-14T08:11:59;8.27;;;7.47;;
10731;SDS011;74907;42.812;23.216;2024-02-14T08:14:26;7.90;;;7.13;;
10731;SDS011;74907;42.812;23.216;2024-02-14T08:16:53;8.50;;;7.70;;
10731;SDS011;74907;42.812;23.216;2024-02-14T08:19:19;8.20;;;7.53;;
10731;SDS011;74907;42.812;23.216;2024-02-14T08:21:46;7.80;;;7.20;;
10731;SDS011;74907;42.812;23.216;2024-02-14T08:24:14;7.00;;;6.40;;
10731;SDS011;74907;42.812;23.216;2024-02-14T08:26:42;7.07;;;6.57;;
10731;SDS011;74907;42.812;23.216;2024-02-14T08:29:09;7.13;;;6.63;;
10731;SDS011;74907;42.812;23.216;2024-02-14T08:31:36;7.53;;;6.93;;
10731;SDS011;74907;42.812;23.216;2024-02-14T08:34:03;7.53;;;7.03;;
10731;SDS011;74907;42.812;23.216;2024-02-14T08:36:30;7.70;;;7.07;;
10731;SDS011;74907;42.812;23.216;2024-02-14T08:38:57;7.70;;;7.00;;
10731;SDS011;74907;42.812;23.216;2024-02-14T08:41:25;7.77;;;7.07;;
10731;SDS011;74907;42.812;23.216;2024-02-14T08:43:51;9.00;;;8.10;;
10731;SDS011;74907;42.812;23.216;2024-02-14T08:46:18;8.67;;;7.97;;
10731;SDS011;74907;42.812;23.216;2024-02-14T08:48:45;9.03;;;8.13;;
10731;SDS011;74907;42.812;23.216;2024-02-14T08:51:11;7.70;;;7.10;;
10731;SDS011;74907;42.812;23.216;2024-02-14T08:53:39;7.13;;;6.63;;
10731;SDS011;74907;42.812;23.216;2024-02-14T08:56:07;8.43;;;7.60;;
10731;SDS011;74907;42.812;23.216;2024-02-14T08:58:35;8.10;;;7.43;;
10731;SDS011;74907;42.812;23.216;2024-02-14T09:01:02;7.83;;;7.23;;
10731;SDS011;74907;42.812;23.216;2024-02-14T09:03:29;7.63;;;6.83;;
10731;SDS011;74907;42.812;23.216;2024-02-14T09:05:56;8.60;;;7.83;;
10731;SDS011;74907;42.812;23.216;2024-02-14T09:08:23;7.33;;;6.73;;
10731;SDS011;74907;42.812;23.216;2024-02-14T09:10:50;7.93;;;7.17;;
10731;SDS011;74907;42.812;23.216;2024-02-14T09:13:17;8.20;;;7.37;;
10731;SDS011;74907;42.812;23.216;2024-02-14T09:15:45;8.57;;;7.87;;
10731;SDS011;74907;42.812;23.216;2024-02-14T09:18:13;7.43;;;6.83;;
10731;SDS011;74907;42.812;23.216;2024-02-14T09:20:41;7.20;;;6.60;;
10731;SDS011;74907;42.812;23.216;2024-02-14T09:23:11;8.17;;;7.47;;
10731;SDS011;74907;42.812;23.216;2024-02-14T09:25:38;8.33;;;7.57;;
10731;SDS011;74907;42.812;23.216;2024-02-14T09:28:05;6.80;;;6.30;;
10731;SDS011;74907;42.812;23.216;2024-02-14T09:30:32;7.13;;;6.53;;
10731;SDS011;74907;42.812;23.216;2024-02-14T09:33:00;7.50;;;6.90;;
10731;SDS011;74907;42.812;23.216;2024-02-14T09:35:27;6.93;;;6.40;;
10731;SDS011;74907;42.812;23.216;2024-02-14T09:37:53;6.63;;;6.13;;
10731;SDS011;74907;42.812;23.216;2024-02-14T09:40:20;7.57;;;6.87;;
10731;SDS011;74907;42.812;23.216;2024-02-14T09:42:49;7.30;;;6.80;;
10731;SDS011;74907;42.812;23.216;2024-02-14T09:45:20;6.60;;;6.20;;
10731;SDS011;74907;42.812;23.216;2024-02-14T09:47:50;7.10;;;6.40;;
10731;SDS011;74907;42.812;23.216;2024-02-14T09:50:19;6.43;;;5.83;;
10731;SDS011;74907;42.812;23.216;2024-02-14T09:52:47;6.67;;;5.93;;
10731;SDS011;74907;42.812;23.216;2024-02-14T09:55:15;6.67;;;6.17;;
10731;SDS011;74907;42.812;23.216;2024-02-14T09:57:42;6.50;;;6.00;;
10731;SDS011;74907;42.812;23.216;2024-02-14T10:00:09;7.13;;;6.50;;
10731;SDS011;74907;42.812;23.216;2024-02-14T10:02:39;9.17;;;8.13;;
10731;SDS011;74907;42.812;23.216;2024-02-14T10:05:06;8.90;;;7.93;;
10731;SDS011;74907;42.812;23.216;2024-02-14T10:07:40;9.63;;;8.47;;
10731;SDS011;74907;42.812;23.216;2024-02-14T10:10:08;8.17;;;7.47;;
10731;SDS011;74907;42.812;23.216;2024-02-14T10:12:35;8.27;;;7.53;;
10731;SDS011;74907;42.812;23.216;2024-02-14T10:15:02;8.37;;;7.63;;
10731;SDS011;74907;42.812;23.216;2024-02-14T10:17:29;7.40;;;6.70;;
10731;SDS011;74907;42.812;23.216;2024-02-14T10:19:56;8.57;;;7.77;;
10731;SDS011;74907;42.812;23.216;2024-02-14T10:22:24;11.07;;;8.13;;
10731;SDS011;74907;42.812;23.216;2024-02-14T10:24:52;7.23;;;6.70;;
10731;SDS011;74907;42.812;23.216;2024-02-14T10:27:18;7.50;;;6.90;;
10731;SDS011;74907;42.812;23.216;2024-02-14T10:29:47;6.63;;;6.13;;
10731;SDS011;74907;42.812;23.216;2024-02-14T10:32:14;6.90;;;6.30;;
10731;SDS011;74907;42.812;23.216;2024-02-14T10:34:43;7.17;;;6.47;;
10731;SDS011;74907;42.812;23.216;2024-02-14T10:37:11;6.70;;;6.13;;
10731;SDS011;74907;42.812;23.216;2024-02-14T10:39:41;6.90;;;6.40;;
10731;SDS011;74907;42.812;23.216;2024-02-14T10:42:13;8.53;;;7.43;;
10731;SDS011;74907;42.812;23.216;2024-02-14T10:44:40;7.17;;;6.67;;
10731;SDS011;74907;42.812;23.216;2024-02-14T10:47:10;7.10;;;6.50;;
10731;SDS011;74907;42.812;23.216;2024-02-14T10:49:40;7.77;;;7.17;;
10731;SDS011;74907;42.812;23.216;2024-02-14T10:52:09;8.60;;;7.80;;
10731;SDS011;74907;42.812;23.216;2024-02-14T10:54:36;7.90;;;7.20;;
10731;SDS011;74907;42.812;23.216;2024-02-14T10:57:04;8.53;;;7.77;;
10731;SDS011;74907;42.812;23.216;2024-02-14T10:59:37;8.00;;;7.10;;
10731;SDS011;74907;42.812;23.216;2024-02-14T11:02:09;6.77;;;6.17;;
10731;SDS011;74907;42.812;23.216;2024-02-14T11:04:36;6.87;;;6.20;;
10731;SDS011;74907;42.812;23.216;2024-02-14T11:07:08;6.97;;;6.40;;
10731;SDS011;74907;42.812;23.216;2024-02-14T11:09:36;6.97;;;6.40;;
10731;SDS011;74907;42.812;23.216;2024-02-14T11:12:04;10.37;;;9.10;;
10731;SDS011;74907;42.812;23.216;2024-02-14T11:14:33;10.07;;;9.17;;
10731;SDS011;74907;42.812;23.216;2024-02-14T11:17:03;9.67;;;8.80;;
10731;SDS011;74907;42.812;23.216;2024-02-14T11:19:34;12.50;;;11.40;;
10731;SDS011;74907;42.812;23.216;2024-02-14T11:22:09;13.40;;;12.40;;
10731;SDS011;74907;42.812;23.216;2024-02-14T11:24:37;7.90;;;7.30;;
10731;SDS011;74907;42.812;23.216;2024-02-14T11:27:09;8.30;;;7.60;;
10731;SDS011;74907;42.812;23.216;2024-02-14T11:29:38;7.10;;;6.43;;
10731;SDS011;74907;42.812;23.216;2024-02-14T11:32:08;7.07;;;6.57;;
10731;SDS011;74907;42.812;23.216;2024-02-14T11:34:38;6.93;;;6.37;;
10731;SDS011;74907;42.812;23.216;2024-02-14T11:37:05;8.30;;;7.60;;
10731;SDS011;74907;42.812;23.216;2024-02-14T11:39:32;7.67;;;7.03;;
10731;SDS011;74907;42.812;23.216;2024-02-14T11:42:00;7.47;;;6.70;;
10731;SDS011;74907;42.812;23.216;2024-02-14T11:44:29;7.80;;;7.13;;
10731;SDS011;74907;42.812;23.216;2024-02-14T11:46:56;7.20;;;6.70;;
10731;SDS011;74907;42.812;23.216;2024-02-14T11:49:25;11.10;;;8.50;;
10731;SDS011;74907;42.812;23.216;2024-02-14T11:51:52;8.33;;;7.60;;
10731;SDS011;74907;42.812;23.216;2024-02-14T11:54:19;7.63;;;6.93;;
10731;SDS011;74907;42.812;23.216;2024-02-14T11:56:47;7.77;;;7.00;;
10731;SDS011;74907;42.812;23.216;2024-02-14T11:59:14;7.70;;;6.87;;
10731;SDS011;74907;42.812;23.216;2024-02-14T12:01:44;6.77;;;6.17;;
10731;SDS011;74907;42.812;23.216;2024-02-14T12:04:13;7.07;;;6.57;;
10731;SDS011;74907;42.812;23.216;2024-02-14T12:06:41;7.93;;;7.23;;
10731;SDS011;74907;42.812;23.216;2024-02-14T12:09:08;9.87;;;7.80;;
10731;SDS011;74907;42.812;23.216;2024-02-14T12:11:36;8.30;;;7.37;;
10731;SDS011;74907;42.812;23.216;2024-02-14T12:14:03;6.10;;;5.70;;
10731;SDS011;74907;42.812;23.216;2024-02-14T12:16:31;6.90;;;6.40;;
10731;SDS011;74907;42.812;23.216;2024-02-14T12:19:03;6.57;;;5.97;;
10731;SDS011;74907;42.812;23.216;2024-02-14T12:21:33;6.20;;;5.70;;
10731;SDS011;74907;42.812;23.216;2024-02-14T12:24:02;6.53;;;5.87;;
10731;SDS011;74907;42.812;23.216;2024-02-14T12:26:30;6.80;;;6.10;;
10731;SDS011;74907;42.812;23.216;2024-02-14T12:28:57;6.97;;;6.37;;
10731;SDS011;74907;42.812;23.216;2024-02-14T12:31:24;7.97;;;7.13;;
10731;SDS011;74907;42.812;23.216;2024-02-14T12:33:51;8.07;;;6.87;;
10731;SDS011;74907;42.812;23.216;2024-02-14T12:36:20;7.07;;;6.47;;
10731;SDS011;74907;42.812;23.216;2024-02-14T12:38:47;8.00;;;6.10;;
10731;SDS011;74907;42.812;23.216;2024-02-14T12:41:15;6.97;;;6.30;;
10731;SDS011;74907;42.812;23.216;2024-02-14T12:43:42;8.53;;;6.33;;
10731;SDS011;74907;42.812;23.216;2024-02-14T12:46:08;7.13;;;6.60;;
10731;SDS011;74907;42.812;23.216;2024-02-14T12:48:35;6.20;;;5.70;;
10731;SDS011;74907;42.812;23.216;2024-02-14T12:51:02;5.93;;;5.43;;
10731;SDS011;74907;42.812;23.216;2024-02-14T12:53:29;6.50;;;5.97;;
10731;SDS011;74907;42.812;23.216;2024-02-14T12:55:55;6.20;;;5.60;;
10731;SDS011;74907;42.812;23.216;2024-02-14T12:58:24;6.23;;;5.73;;
10731;SDS011;74907;42.812;23.216;2024-02-14T13:00:50;6.20;;;5.70;;
10731;SDS011;74907;42.812;23.216;2024-02-14T13:03:18;6.60;;;6.00;;
10731;SDS011;74907;42.812;23.216;2024-02-14T13:05:45;6.90;;;6.30;;
10731;SDS011;74907;42.812;23.216;2024-02-14T13:08:12;5.77;;;5.30;;
10731;SDS011;74907;42.812;23.216;2024-02-14T13:10:40;5.60;;;5.20;;
10731;SDS011;74907;42.812;23.216;2024-02-14T13:13:07;7.10;;;6.23;;
10731;SDS011;74907;42.812;23.216;2024-02-14T13:15:35;6.60;;;5.87;;
10731;SDS011;74907;42.812;23.216;2024-02-14T13:18:02;6.07;;;5.47;;
10731;SDS011;74907;42.812;23.216;2024-02-14T13:20:29;6.27;;;5.77;;
10731;SDS011;74907;42.812;23.216;2024-02-14T13:22:56;6.77;;;5.00;;
10731;SDS011;74907;42.812;23.216;2024-02-14T13:25:23;6.37;;;5.77;;
10731;SDS011;74907;42.812;23.216;2024-02-14T13:27:50;7.27;;;6.13;;
10731;SDS011;74907;42.812;23.216;2024-02-14T13:30:17;6.03;;;5.60;;
10731;SDS011;74907;42.812;23.216;2024-02-14T13:32:45;5.53;;;5.00;;
10731;SDS011;74907;42.812;23.216;2024-02-14T13:35:12;5.43;;;4.93;;
10731;SDS011;74907;42.812;23.216;2024-02-14T13:37:39;6.87;;;6.23;;
10731;SDS011;74907;42.812;23.216;2024-02-14T13:40:07;6.50;;;5.93;;
10731;SDS011;74907;42.812;23.216;2024-02-14T13:42:35;9.30;;;6.83;;
10731;SDS011;74907;42.812;23.216;2024-02-14T13:45:03;8.37;;;7.43;;
10731;SDS011;74907;42.812;23.216;2024-02-14T13:47:30;7.93;;;6.67;;
10731;SDS011;74907;42.812;23.216;2024-02-14T13:49:58;8.50;;;6.33;;
10731;SDS011;74907;42.812;23.216;2024-02-14T13:52:25;11.30;;;9.80;;
10731;SDS011;74907;42.812;23.216;2024-02-14T13:54:51;10.20;;;9.20;;
10731;SDS011;74907;42.812;23.216;2024-02-14T13:57:18;7.47;;;6.53;;
10731;SDS011;74907;42.812;23.216;2024-02-14T13:59:45;13.20;;;9.40;;
10731;SDS011;74907;42.812;23.216;2024-02-14T14:02:12;9.37;;;8.03;;
10731;SDS011;74907;42.812;23.216;2024-02-14T14:04:38;9.57;;;8.07;;
10731;SDS011;74907;42.812;23.216;2024-02-14T14:07:06;8.73;;;7.43;;
10731;SDS011;74907;42.812;23.216;2024-02-14T14:09:33;7.37;;;6.13;;
10731;SDS011;74907;42.812;23.216;2024-02-14T14:12:00;6.50;;;5.93;;
10731;SDS011;74907;42.812;23.216;2024-02-14T14:14:27;6.20;;;5.60;;
10731;SDS011;74907;42.812;23.216;2024-02-14T14:16:55;6.23;;;5.80;;
10731;SDS011;74907;42.812;23.216;2024-02-14T14:19:22;7.27;;;6.43;;
10731;SDS011;74907;42.812;23.216;2024-02-14T14:21:49;11.03;;;9.93;;
10731;SDS011;74907;42.812;23.216;2024-02-14T14:24:17;10.53;;;7.20;;
10731;SDS011;74907;42.812;23.216;2024-02-14T14:26:44;10.63;;;8.73;;
10731;SDS011;74907;42.812;23.216;2024-02-14T14:29:11;8.53;;;7.13;;